Pagrindinis puslapis
METAR-TAF:

METAR-TAF

Oro uostai :

Okajama, Japonija

platuma: 34-45N, ilguma: 133-51E, Aukštis: 241 m

Dabartinis oras

Ataskaita buvo paskelbta 48 minutes, ne 03:00 UTC
Vėjas 10 kt iš Vakarų, svyruoja nuo Vakarų/Pietvakarių ir Šiaurės Vakarų
Temperatūra 9°C
Drėgmė 53%
Slėgis 1016 hPa
Matomumas 10 km arba daugiau
Mažai debesys ne aukštis 2500 ft
Išsisklaidę debesys ne aukštis 3500 ft
Su prošvaistėmis ne aukštis 4500 ft

METAR: RJOB 200300Z 28010KT 250V320 9999 FEW025 SCT035 BKN045 09/M00 Q1016

Laikas: 12:48 (03:48 UTC)

Prognozė

Ataskaita buvo paskelbta 4 valandos ir 39 minutes, ne 23:09 UTC
Prognozė galioja nuo 20 metu 00 UTC su 21 metu 06 UTC
Vėjas 13 kt iš Vakarų
Matomumas 10 km arba daugiau
Mažai debesys ne aukštis 2500 ft
Išsisklaidę debesys ne aukštis 4500 ft
Tapsmas
nuo 21 metu 00 UTC su 21 metu 03 UTC
Vėjas 7 kt iš Šiaurės/Šiaurės Vakarų

TAF: RJOB 192309Z 2000/2106 26013KT 9999 FEW025 SCT045 BECMG 2100/2103 34007KT

Orai ataskaitas ir orų prognozės (METAR, TAF).

turimą stotys yra geltonos ir raudonos taškus žemėlapyje.

Perkelti pele per norėdami pamatyti stoties vardą.

Tada spustelėkite, norėdami matyti oro stebėjimo ir prognozės.

Norėdami pakeisti žemėlapį: spustelėkite ant žalios mygtukų su juodo kryžiaus žemyn,; žalią mygtuką su brūkšneliu, jei norite nutolinti; arba žalių rodyklių gretimoms žemėlapius.


METAR-TAF: